Larissa , Thessalia , Greece
39° 38' 00"N, 22° 25' 00"E, Elevation 263 ft.
Χειμερινή Time

Hourly observations for the last 48 hours

Date

Time

Temperature (°C) Humi-
dity
(%)
Wind
(kmph)
Pressure Rain (mm) Sun
(W/m2)
UV ET
(mm)
Air Dew 6 Hour 1 Hr 3 Hr 6 Hr Day
Alt
(in)
Sea
Level
(mb)
Max Min
23 11:00 24.8 13.4 49 N 3 G 9 29.95 1014.3 0.00 977 0.0 1.118
23 10:00 22.4 15.3 64 NNE 1 G 4 29.96 1014.6 0.00 637 0.0 0.711
23 09:00 20.2 15.7 20.4 16.7 75 N 4 G 8 29.96 1014.6 0.00 456 0.0 0.432
23 08:00 18.8 14.9 78 NNE 1 G 3 29.94 1014.1 0.00 276 0.0 0.254
23 07:00 16.7 13.8 83 Calm 29.93 1013.6 0.00 89 0.0 0.178
23 06:00 17.3 14.0 81 Calm 29.91 1012.9 0.00 0 0.0 0.152
23 05:00 17.9 14.4 80 Calm 29.90 1012.5 0.00 0 0.0 0.127
23 04:00 18.9 14.2 74 N 2 G 4 29.90 1012.6 0.00 0 0.0 0.102
23 03:00 19.5 13.9 23.3 18.9 70 N 0 G 6 29.90 1012.5 0.00 0 0.0 0.076
23 02:00 19.1 14.3 74 N 0 G 3 29.90 1012.5 0.00 0 0.0 0.051
23 01:00 20.5 14.4 68 N 0 G 3 29.89 1012.1 0.00 0 0.0 0.025
23 00:00 20.1 14.9 72 NW 0 G 1 29.88 1011.9 0.00 0 0.0 0.000
22 23:00 21.8 13.2 58 N 3 G 6 29.87 1011.5 0.00 0 0.0 3.835
22 22:00 21.9 13.0 57 N 0 G 6 29.86 1011.3 0.00 0 0.0 3.785
22 21:00 23.3 12.0 26.6 23.3 49 WNW 2 G 8 29.84 1010.4 0.00 0 0.0 3.734
22 20:00 25.0 10.1 39 NNE 0 G 3 29.81 1009.4 0.00 11 0.0 3.683
22 19:00 26.1 9.5 35 E 3 G 4 29.80 1009.1 0.00 112 0.0 3.632
22 18:00 26.2 9.1 34 NW 6 G 8 29.80 1009.0 0.00 398 0.0 3.429
22 17:00 26.1 9.5 35 NNE 5 G 9 29.80 1009.0 0.00 616 0.0 3.175
22 16:00 24.9 9.2 37 S 2 G 8 29.81 1009.5 0.00 356 0.0 2.921
22 15:00 24.5 8.9 25.6 17.5 37 SW 7 G 11 29.82 1009.9 0.00 268 0.0 2.718
22 14:00 25.0 7.6 33 WNW 4 G 12 29.83 1010.1 0.00 1222 0.0 2.413
22 13:00 24.8 4.6 27 W 6 G 16 29.83 1010.4 0.00 960 0.0 2.032
22 12:00 23.1 12.4 51 SW 7 G 11 29.85 1010.9 0.00 682 0.0 1.499
22 11:00 21.3 13.5 61 WSW 5 G 9 29.86 1011.1 0.00 804 0.0 1.067
22 10:00 19.5 13.7 69 WNW 2 G 6 29.86 1011.1 0.00 673 0.0 0.711
22 09:00 17.5 13.4 17.5 13.9 77 NNE 1 G 4 29.87 1011.4 0.00 485 0.0 0.432
22 08:00 15.8 13.3 85 N 0 G 6 29.87 1011.5 0.00 293 0.0 0.254
22 07:00 14.2 12.8 91 N 0 G 4 29.86 1011.1 0.00 108 0.0 0.152
22 06:00 14.1 12.6 91 N 2 G 8 29.85 1010.7 0.00 0 0.0 0.127
22 05:00 14.6 13.0 90 N 7 G 12 29.84 1010.5 0.00 0 0.0 0.127
22 04:00 16.3 13.6 84 Calm 29.85 1010.7 0.00 0 0.0 0.102
22 03:00 16.7 13.6 17.4 16.2 82 N 0 G 4 29.85 1011.0 0.20 0.00 0 0.0 0.076
22 02:00 16.7 13.6 82 N 0 G 1 29.85 1011.0 0.00 0 0.0 0.051
22 01:00 17.1 14.0 82 N 5 G 9 29.85 1011.0 0.00 0 0.0 0.025
22 00:00 16.4 13.9 85 N 4 G 8 29.84 1010.6 0.20 0.20 0.00 0 0.0 0.000
21 23:00 16.7 14.2 85 N 4 G 8 29.82 1010.0 4.21 0 0.0 4.242
21 22:00 17.3 13.3 77 N 4 G 6 29.81 1009.4 4.21 0 0.0 4.216
21 21:00 16.4 13.9 25.1 16.4 85 N 1 G 6 29.77 1008.3 0.20 4.21 4.21 4.21 0 0.0 4.191
21 20:00 17.3 14.9 86 N 6 G 8 29.75 1007.4 4.01 6 0.0 4.166
21 19:00 17.9 14.8 82 N 3 G 8 29.73 1006.7 4.01 4.01 23 0.0 4.140
21 18:00 20.4 12.7 61 N 6 G 22 29.71 1006.3 0.00 8 0.0 4.115
21 17:00 21.4 10.3 49 N 6 G 25 29.69 1005.4 0.00 80 0.0 4.039
21 16:00 23.7 8.6 38 ENE 20 G 40 29.64 1003.9 0.00 443 0.0 3.810
21 15:00 24.7 9.1 27.8 21.0 37 NE 17 G 32 29.63 1003.5 0.00 167 0.0 3.302
21 14:00 27.6 8.4 30 ENE 12 G 32 29.62 1003.0 0.00 985 0.0 2.819
21 13:00 26.7 7.2 29 E 6 G 11 29.63 1003.5 0.00 318 0.0 2.337
21 12:00 25.9 6.0 28 NNW 4 G 9 29.65 1004.2 0.00 1030 0.0 1.880

Data generated by WxSolution Version 1.8.4.2, Build 2009.03.29.